Time;durP1;ratioP1;P1;durP2;ratioP2;P2;SDS_P1;SDS_P2;PMS_P1;PMS_P2;Temp;Humidity;BMP_temperature;BMP_pressure;BME280_temperature;BME280_humidity;BME280_pressure;Samples;Min_cycle;Max_cycle;Signal;HPM_P1;HPM_P2
2023/08/19 00:00:55;;;;;;;;;11.50;11.50;;;;;;;;4612252;30;28434;-67
2023/08/19 00:03:21;;;;;;;;;13.75;10.50;;;;;;;;4612364;30;28275;-67
2023/08/19 00:05:46;;;;;;;;;12.50;12.50;;;;;;;;4611914;30;28458;-67
2023/08/19 00:08:11;;;;;;;;;12.75;11.75;;;;;;;;4610974;30;28425;-67
2023/08/19 00:10:37;;;;;;;;;13.25;12.00;;;;;;;;4611923;30;28435;-68
2023/08/19 00:13:02;;;;;;;;;8.25;8.25;;;;;;;;4609553;30;28440;-67
2023/08/19 00:15:28;;;;;;;;;14.00;13.75;;;;;;;;4604664;30;28852;-67
2023/08/19 00:17:53;;;;;;;;;11.00;10.50;;;;;;;;4578751;31;29248;-67
2023/08/19 00:20:18;;;;;;;;;13.50;12.75;;;;;;;;4578827;31;28425;-67
2023/08/19 00:22:44;;;;;;;;;11.00;11.00;;;;;;;;4578716;31;28372;-67
2023/08/19 00:25:09;;;;;;;;;11.75;10.75;;;;;;;;4577414;31;28548;-67
2023/08/19 00:27:34;;;;;;;;;12.50;12.25;;;;;;;;4578281;31;28470;-67
2023/08/19 00:29:59;;;;;;;;;11.25;10.00;;;;;;;;4578380;31;28436;-67
2023/08/19 00:32:25;;;;;;;;;13.25;11.25;;;;;;;;4578685;31;28552;-67
2023/08/19 00:34:50;;;;;;;;;14.00;11.00;;;;;;;;4577124;31;28516;-67
2023/08/19 00:37:15;;;;;;;;;13.75;13.75;;;;;;;;4578760;31;28444;-67
2023/08/19 00:39:40;;;;;;;;;14.75;11.00;;;;;;;;4578476;31;28546;-67
2023/08/19 00:42:09;;;;;;;;;12.75;11.75;;;;;;;;4606045;30;28442;-67
2023/08/19 00:44:34;;;;;;;;;15.50;13.75;;;;;;;;4611663;30;28563;-67
2023/08/19 00:47:03;;;;;;;;;9.00;8.75;;;;;;;;4611468;30;29105;-67
2023/08/19 00:49:29;;;;;;;;;10.75;10.75;;;;;;;;4611369;30;28470;-67
2023/08/19 00:51:55;;;;;;;;;10.00;10.00;;;;;;;;4611803;30;28456;-67
2023/08/19 00:54:20;;;;;;;;;11.00;10.25;;;;;;;;4611498;30;28837;-67
2023/08/19 00:56:46;;;;;;;;;12.75;11.00;;;;;;;;4611718;30;28670;-67
2023/08/19 00:59:11;;;;;;;;;13.75;11.50;;;;;;;;4611565;30;28586;-67
2023/08/19 01:01:36;;;;;;;;;8.00;8.00;;;;;;;;4610351;30;28479;-67
2023/08/19 01:04:02;;;;;;;;;8.00;7.25;;;;;;;;4611403;30;28469;-67
2023/08/19 01:06:32;;;;;;;;;11.75;11.00;;;;;;;;4610221;30;30451;-67
2023/08/19 01:09:09;;;;;;;;;9.00;9.00;;;;;;;;4611608;30;28352;-67
2023/08/19 01:11:51;;;;;;;;;11.75;10.75;;;;;;;;4610184;30;28510;-67
2023/08/19 01:14:22;;;;;;;;;11.00;10.00;;;;;;;;4610988;30;28447;-67
2023/08/19 01:16:50;;;;;;;;;9.50;8.25;;;;;;;;4609926;30;28494;-68
2023/08/19 01:19:29;;;;;;;;;8.75;7.75;;;;;;;;4611081;30;28303;-67
2023/08/19 01:21:57;;;;;;;;;11.25;10.50;;;;;;;;4611157;30;28502;-67
2023/08/19 01:24:25;;;;;;;;;11.00;9.75;;;;;;;;4610931;30;28433;-67
2023/08/19 01:26:50;;;;;;;;;7.25;6.50;;;;;;;;4609795;30;29846;-67
2023/08/19 01:29:16;;;;;;;;;9.75;9.25;;;;;;;;4610837;30;28252;-67
2023/08/19 01:31:41;;;;;;;;;13.75;11.25;;;;;;;;4610903;30;28355;-67
2023/08/19 01:34:06;;;;;;;;;11.50;10.00;;;;;;;;4610500;30;28355;-67
2023/08/19 01:36:34;;;;;;;;;8.75;8.75;;;;;;;;4610996;30;28339;-67
2023/08/19 01:39:00;;;;;;;;;11.25;10.00;;;;;;;;4611137;30;28502;-67
2023/08/19 01:41:29;;;;;;;;;13.00;12.50;;;;;;;;4610492;30;28594;-67
2023/08/19 01:43:56;;;;;;;;;14.75;12.00;;;;;;;;4610321;30;28433;-67
2023/08/19 01:46:21;;;;;;;;;11.00;11.00;;;;;;;;4593297;30;28523;-67
2023/08/19 01:48:46;;;;;;;;;7.25;6.75;;;;;;;;4577203;31;28484;-67
2023/08/19 01:51:11;;;;;;;;;10.50;9.00;;;;;;;;4577411;31;28451;-67
2023/08/19 01:53:37;;;;;;;;;9.00;7.50;;;;;;;;4577493;31;28474;-67
2023/08/19 01:56:03;;;;;;;;;14.00;11.50;;;;;;;;4577368;31;28491;-67
2023/08/19 01:58:28;;;;;;;;;11.00;9.75;;;;;;;;4577363;31;28585;-67
2023/08/19 02:00:53;;;;;;;;;13.00;11.75;;;;;;;;4577623;31;28550;-67
2023/08/19 02:03:18;;;;;;;;;9.00;9.00;;;;;;;;4577610;31;28522;-67
2023/08/19 02:05:44;;;;;;;;;11.25;9.75;;;;;;;;4577646;31;28646;-67
2023/08/19 02:08:09;;;;;;;;;10.50;10.00;;;;;;;;4577393;31;28578;-67
2023/08/19 02:10:35;;;;;;;;;11.75;11.00;;;;;;;;4576528;31;28408;-67
2023/08/19 02:13:00;;;;;;;;;10.00;9.75;;;;;;;;4577267;31;28804;-67
2023/08/19 02:15:25;;;;;;;;;10.00;9.00;;;;;;;;4577487;31;28492;-67
2023/08/19 02:17:50;;;;;;;;;7.75;6.75;;;;;;;;4577718;31;28492;-67
2023/08/19 02:20:15;;;;;;;;;11.25;10.00;;;;;;;;4577508;31;28432;-67
2023/08/19 02:22:41;;;;;;;;;8.00;7.75;;;;;;;;4577570;31;28500;-67
2023/08/19 02:25:06;;;;;;;;;9.75;9.50;;;;;;;;4577442;31;28419;-67
2023/08/19 02:27:31;;;;;;;;;12.00;10.00;;;;;;;;4577127;31;28543;-67
2023/08/19 02:29:57;;;;;;;;;8.25;7.00;;;;;;;;4577661;31;28551;-67
2023/08/19 02:32:22;;;;;;;;;9.00;8.75;;;;;;;;4577261;31;28442;-67
2023/08/19 02:34:47;;;;;;;;;11.75;9.25;;;;;;;;4577234;31;29300;-67
2023/08/19 02:37:14;;;;;;;;;11.75;9.00;;;;;;;;4577360;31;28479;-67
2023/08/19 02:39:39;;;;;;;;;9.50;9.50;;;;;;;;4577717;31;28595;-68
2023/08/19 02:42:04;;;;;;;;;7.50;7.50;;;;;;;;4603828;30;28430;-67
2023/08/19 02:44:30;;;;;;;;;9.00;9.00;;;;;;;;4610910;30;29522;-67
2023/08/19 02:46:55;;;;;;;;;7.50;7.50;;;;;;;;4613108;30;28430;-67
2023/08/19 02:49:20;;;;;;;;;11.25;10.25;;;;;;;;4613332;30;28621;-67
2023/08/19 02:51:45;;;;;;;;;9.50;9.50;;;;;;;;4612263;30;28511;-67
2023/08/19 02:54:11;;;;;;;;;8.75;7.25;;;;;;;;4611688;30;28750;-67
2023/08/19 02:56:37;;;;;;;;;6.67;6.67;;;;;;;;4612791;30;28354;-67
2023/08/19 02:59:02;;;;;;;;;8.00;7.00;;;;;;;;4613397;30;28502;-67
2023/08/19 03:01:27;;;;;;;;;9.50;7.75;;;;;;;;4612252;30;28446;-67
2023/08/19 03:03:52;;;;;;;;;10.25;10.00;;;;;;;;4611847;30;30507;-67
2023/08/19 03:06:18;;;;;;;;;10.50;9.25;;;;;;;;4613020;30;28252;-67
2023/08/19 03:08:43;;;;;;;;;8.25;8.25;;;;;;;;4613261;30;28293;-68
2023/08/19 03:11:08;;;;;;;;;10.25;10.25;;;;;;;;4613030;30;28472;-67
2023/08/19 03:13:35;;;;;;;;;9.00;9.00;;;;;;;;4612895;30;28530;-67
2023/08/19 03:16:00;;;;;;;;;8.50;8.50;;;;;;;;4613212;30;28338;-67
2023/08/19 03:18:26;;;;;;;;;7.50;7.50;;;;;;;;4613015;30;28434;-68
2023/08/19 03:20:55;;;;;;;;;7.00;7.00;;;;;;;;4613079;30;28427;-67
2023/08/19 03:23:20;;;;;;;;;9.25;9.25;;;;;;;;4612795;30;29492;-67
2023/08/19 03:25:48;;;;;;;;;9.50;8.00;;;;;;;;4612716;30;28494;-67
2023/08/19 03:28:13;;;;;;;;;8.00;7.25;;;;;;;;4612917;30;28667;-68
2023/08/19 03:30:38;;;;;;;;;8.50;8.50;;;;;;;;4612768;30;28450;-68
2023/08/19 03:33:04;;;;;;;;;10.25;9.00;;;;;;;;4612723;30;29410;-68
2023/08/19 03:35:29;;;;;;;;;7.75;6.75;;;;;;;;4612768;30;28497;-67
2023/08/19 03:37:54;;;;;;;;;11.50;10.25;;;;;;;;4612658;30;28429;-67
2023/08/19 03:40:20;;;;;;;;;8.25;6.50;;;;;;;;4612824;30;28512;-67
2023/08/19 03:42:45;;;;;;;;;6.75;6.75;;;;;;;;4612387;30;29330;-68
2023/08/19 03:45:10;;;;;;;;;8.75;7.00;;;;;;;;4612709;30;28457;-67
2023/08/19 03:47:36;;;;;;;;;8.00;6.50;;;;;;;;4612513;30;28450;-67
2023/08/19 03:50:01;;;;;;;;;6.25;6.25;;;;;;;;4612738;30;28398;-67
2023/08/19 03:52:26;;;;;;;;;9.00;8.00;;;;;;;;4612345;30;28550;-67
2023/08/19 03:54:51;;;;;;;;;8.00;6.50;;;;;;;;4611120;30;29557;-67
2023/08/19 03:57:16;;;;;;;;;9.25;8.50;;;;;;;;4611942;30;28446;-67
2023/08/19 03:59:42;;;;;;;;;6.75;6.75;;;;;;;;4612347;30;28441;-67
2023/08/19 04:02:07;;;;;;;;;6.50;6.50;;;;;;;;4610983;30;30114;-67
2023/08/19 04:04:34;;;;;;;;;8.50;7.50;;;;;;;;4611957;30;28498;-67
2023/08/19 04:07:00;;;;;;;;;5.00;5.00;;;;;;;;4612079;30;28422;-67
2023/08/19 04:09:25;;;;;;;;;6.00;6.00;;;;;;;;4612524;30;28381;-67
2023/08/19 04:11:51;;;;;;;;;7.75;7.00;;;;;;;;4611980;30;28440;-67
2023/08/19 04:14:16;;;;;;;;;5.50;5.50;;;;;;;;4612119;30;28465;-67
2023/08/19 04:16:41;;;;;;;;;6.25;6.25;;;;;;;;4612062;30;28682;-68
2023/08/19 04:19:07;;;;;;;;;4.25;4.25;;;;;;;;4610958;30;28471;-68
2023/08/19 04:21:32;;;;;;;;;8.00;6.50;;;;;;;;4611820;30;29308;-67
2023/08/19 04:23:57;;;;;;;;;6.00;6.00;;;;;;;;4612191;30;28411;-67
2023/08/19 04:26:22;;;;;;;;;5.00;5.00;;;;;;;;4610887;30;28338;-67
2023/08/19 04:28:48;;;;;;;;;4.67;4.67;;;;;;;;4611881;30;28390;-67
2023/08/19 04:31:13;;;;;;;;;6.67;6.67;;;;;;;;4611990;30;29271;-67
2023/08/19 04:33:38;;;;;;;;;6.33;6.00;;;;;;;;4610718;30;28457;-68
2023/08/19 04:36:04;;;;;;;;;4.33;4.33;;;;;;;;4611555;30;28507;-68
2023/08/19 04:38:29;;;;;;;;;7.00;5.00;;;;;;;;4612186;30;28359;-68
2023/08/19 04:40:54;;;;;;;;;4.25;4.25;;;;;;;;4611754;30;29230;-68
2023/08/19 04:43:20;;;;;;;;;6.50;6.00;;;;;;;;4611713;30;28461;-68
2023/08/19 04:45:45;;;;;;;;;6.00;6.00;;;;;;;;4610583;30;28482;-68
2023/08/19 04:48:11;;;;;;;;;4.33;4.33;;;;;;;;4611763;30;28479;-68
2023/08/19 04:50:36;;;;;;;;;6.50;5.25;;;;;;;;4611501;30;28401;-70
2023/08/19 04:53:02;;;;;;;;;5.25;5.25;;;;;;;;4611608;30;28376;-70
2023/08/19 04:55:27;;;;;;;;;5.00;5.00;;;;;;;;4610376;30;28534;-71
2023/08/19 04:57:53;;;;;;;;;3.33;3.33;;;;;;;;4611571;30;28410;-71
2023/08/19 05:00:18;;;;;;;;;6.00;3.25;;;;;;;;4611645;30;28506;-70
2023/08/19 05:02:43;;;;;;;;;4.50;4.50;;;;;;;;4611497;30;28575;-70
2023/08/19 05:05:09;;;;;;;;;3.00;3.00;;;;;;;;4610169;30;28543;-71
2023/08/19 05:07:34;;;;;;;;;3.00;3.00;;;;;;;;4599957;30;28498;-70
2023/08/19 05:09:59;;;;;;;;;3.00;3.00;;;;;;;;4593712;31;28484;-71
2023/08/19 05:12:24;;;;;;;;;2.00;2.00;;;;;;;;4594715;31;28412;-71
2023/08/19 05:14:49;;;;;;;;;3.00;3.00;;;;;;;;4594587;31;28434;-70
2023/08/19 05:17:15;;;;;;;;;2.00;2.00;;;;;;;;4594607;30;28538;-71
2023/08/19 05:19:40;;;;;;;;;4.00;4.00;;;;;;;;4585939;31;30581;-71
2023/08/19 05:22:05;;;;;;;;;3.67;3.67;;;;;;;;4587158;31;28474;-70
2023/08/19 05:24:30;;;;;;;;;4.00;3.00;;;;;;;;4593304;31;28531;-70
2023/08/19 05:26:56;;;;;;;;;4.00;3.00;;;;;;;;4594407;31;28527;-70
2023/08/19 05:29:21;;;;;;;;;2.00;2.00;;;;;;;;4579244;31;31212;-70
2023/08/19 05:31:46;;;;;;;;;2.33;2.33;;;;;;;;4594392;31;28345;-71
2023/08/19 05:34:11;;;;;;;;;4.00;2.33;;;;;;;;4590140;31;28415;-70
2023/08/19 05:36:37;;;;;;;;;4.00;4.00;;;;;;;;4579527;31;28467;-70
2023/08/19 05:39:03;;;;;;;;;3.00;2.00;;;;;;;;4577883;31;28492;-71
2023/08/19 05:41:28;;;;;;;;;4.33;3.00;;;;;;;;4587231;31;28463;-71
2023/08/19 05:43:54;;;;;;;;;4.00;2.67;;;;;;;;4594079;30;28615;-70
2023/08/19 05:46:19;;;;;;;;;3.00;3.00;;;;;;;;4594117;31;28579;-71
2023/08/19 05:48:44;;;;;;;;;4.00;4.00;;;;;;;;4592757;31;30482;-71
2023/08/19 05:51:09;;;;;;;;;2.67;2.67;;;;;;;;4594423;30;28518;-71
2023/08/19 05:53:35;;;;;;;;;4.00;3.00;;;;;;;;4594488;31;28526;-71
2023/08/19 05:56:01;;;;;;;;;3.67;2.67;;;;;;;;4591891;31;28484;-72
2023/08/19 05:58:26;;;;;;;;;3.00;1.33;;;;;;;;4592051;31;28623;-72
2023/08/19 06:01:02;;;;;;;;;2.00;2.00;;;;;;;;4593678;31;28626;-72
2023/08/19 06:03:28;;;;;;;;;3.00;1.67;;;;;;;;4593050;30;28543;-72
2023/08/19 06:05:53;;;;;;;;;4.00;2.67;;;;;;;;4593495;31;28414;-71
2023/08/19 06:08:18;;;;;;;;;3.33;1.00;;;;;;;;4593669;31;28562;-72
2023/08/19 06:10:44;;;;;;;;;2.00;2.00;;;;;;;;4592478;31;28486;-72
2023/08/19 06:13:12;;;;;;;;;1.00;0.00;;;;;;;;4594369;30;28560;-72
2023/08/19 06:15:37;;;;;;;;;2.67;1.33;;;;;;;;4594078;30;28399;-72
2023/08/19 06:18:03;;;;;;;;;1.67;1.67;;;;;;;;4578512;31;29967;-72
2023/08/19 06:20:28;;;;;;;;;2.00;2.00;;;;;;;;4594486;31;28478;-72
2023/08/19 06:22:53;;;;;;;;;2.33;2.33;;;;;;;;4596971;31;28436;-72
2023/08/19 06:25:18;;;;;;;;;2.00;2.00;;;;;;;;4597012;30;28382;-72
2023/08/19 06:27:44;;;;;;;;;2.67;2.33;;;;;;;;4596967;31;28422;-72
2023/08/19 06:30:09;;;;;;;;;1.33;1.33;;;;;;;;4596932;31;28491;-73
2023/08/19 06:32:34;;;;;;;;;0.33;0.33;;;;;;;;4596851;31;27905;-72
2023/08/19 06:35:00;;;;;;;;;1.00;1.00;;;;;;;;4596943;30;28458;-72
2023/08/19 06:37:29;;;;;;;;;2.00;2.00;;;;;;;;4595649;31;29895;-72
2023/08/19 06:39:57;;;;;;;;;2.00;1.00;;;;;;;;4596916;30;28563;-73
2023/08/19 06:42:23;;;;;;;;;2.00;2.00;;;;;;;;4596839;30;28511;-72
2023/08/19 06:44:49;;;;;;;;;3.00;2.00;;;;;;;;4595397;31;28289;-72
2023/08/19 06:47:20;;;;;;;;;1.00;1.00;;;;;;;;4596420;30;28544;-72
2023/08/19 06:49:45;;;;;;;;;2.67;2.67;;;;;;;;4595470;31;28984;-72
2023/08/19 06:52:11;;;;;;;;;2.00;2.00;;;;;;;;4596526;30;28460;-72
2023/08/19 06:54:36;;;;;;;;;2.33;2.33;;;;;;;;4595450;31;28400;-71
2023/08/19 06:57:09;;;;;;;;;3.00;1.00;;;;;;;;4596503;30;28375;-71
2023/08/19 06:59:36;;;;;;;;;2.33;1.33;;;;;;;;4596418;30;28256;-71
2023/08/19 07:02:02;;;;;;;;;2.00;2.00;;;;;;;;4596286;30;28621;-71
2023/08/19 07:04:29;;;;;;;;;1.00;1.00;;;;;;;;4596248;30;28353;-71
2023/08/19 07:06:56;;;;;;;;;1.00;1.00;;;;;;;;4596453;30;28543;-71
2023/08/19 07:09:22;;;;;;;;;2.00;2.00;;;;;;;;4596345;30;28495;-71
2023/08/19 07:11:47;;;;;;;;;3.00;2.00;;;;;;;;4596455;30;28541;-71
2023/08/19 07:14:12;;;;;;;;;3.00;3.00;;;;;;;;4581161;31;28461;-71
2023/08/19 07:16:38;;;;;;;;;1.00;1.00;;;;;;;;4596240;30;30585;-72
2023/08/19 07:19:05;;;;;;;;;2.00;2.00;;;;;;;;4595085;31;29473;-72
2023/08/19 07:21:32;;;;;;;;;3.00;3.00;;;;;;;;4596428;30;28454;-72
2023/08/19 07:24:01;;;;;;;;;2.00;2.00;;;;;;;;4595036;31;27949;-72
2023/08/19 07:26:28;;;;;;;;;2.67;2.67;;;;;;;;4596101;30;28484;-71
2023/08/19 07:28:54;;;;;;;;;3.00;3.00;;;;;;;;4595952;30;28449;-72
2023/08/19 07:31:20;;;;;;;;;2.33;2.33;;;;;;;;4595266;30;28360;-71
2023/08/19 07:33:46;;;;;;;;;3.67;3.67;;;;;;;;4596230;30;28519;-72
2023/08/19 07:36:11;;;;;;;;;2.00;2.00;;;;;;;;4595774;31;28419;-72
2023/08/19 07:38:36;;;;;;;;;3.33;3.33;;;;;;;;4595134;31;28652;-72
2023/08/19 07:41:01;;;;;;;;;4.00;3.00;;;;;;;;4595974;30;28502;-72
2023/08/19 07:43:27;;;;;;;;;3.00;3.00;;;;;;;;4596133;31;28339;-71
2023/08/19 07:45:52;;;;;;;;;4.00;3.00;;;;;;;;4595761;31;28485;-72
2023/08/19 07:48:17;;;;;;;;;3.33;3.33;;;;;;;;4595905;31;28348;-71
2023/08/19 07:50:42;;;;;;;;;2.00;2.00;;;;;;;;4596082;31;28282;-71
2023/08/19 07:53:08;;;;;;;;;4.33;4.33;;;;;;;;4596303;31;28378;-72
2023/08/19 07:55:33;;;;;;;;;3.00;3.00;;;;;;;;4595890;30;28510;-71
2023/08/19 07:57:58;;;;;;;;;5.00;2.33;;;;;;;;4596172;31;28318;-72
2023/08/19 08:00:23;;;;;;;;;1.00;1.00;;;;;;;;4595941;31;28337;-72
2023/08/19 08:02:49;;;;;;;;;3.00;2.00;;;;;;;;4595664;31;28344;-72
2023/08/19 08:05:14;;;;;;;;;3.00;3.00;;;;;;;;4595559;31;28575;-72
2023/08/19 08:07:39;;;;;;;;;3.00;2.00;;;;;;;;4595697;30;28464;-72
2023/08/19 08:10:05;;;;;;;;;3.00;2.00;;;;;;;;4595733;31;28320;-72
2023/08/19 08:12:30;;;;;;;;;1.00;1.00;;;;;;;;4595396;30;28518;-71
2023/08/19 08:14:56;;;;;;;;;2.00;2.00;;;;;;;;4595055;30;28468;-71
2023/08/19 08:17:21;;;;;;;;;3.33;2.00;;;;;;;;4595218;30;28553;-72
2023/08/19 08:19:47;;;;;;;;;2.67;1.67;;;;;;;;4595561;31;28389;-72
2023/08/19 08:22:12;;;;;;;;;3.00;3.00;;;;;;;;4595295;31;28459;-72
2023/08/19 08:24:37;;;;;;;;;1.33;1.33;;;;;;;;4595507;31;29235;-71
2023/08/19 08:27:02;;;;;;;;;3.33;1.67;;;;;;;;4595266;31;28355;-72
2023/08/19 08:29:27;;;;;;;;;2.00;2.00;;;;;;;;4595153;31;28479;-72
2023/08/19 08:31:53;;;;;;;;;1.00;1.00;;;;;;;;4595132;31;28336;-72
2023/08/19 08:34:18;;;;;;;;;1.33;1.33;;;;;;;;4595060;31;28559;-72
2023/08/19 08:36:43;;;;;;;;;3.00;1.67;;;;;;;;4595355;31;28520;-72
2023/08/19 08:39:08;;;;;;;;;3.33;2.33;;;;;;;;4594243;31;28604;-72
2023/08/19 08:41:38;;;;;;;;;3.00;3.00;;;;;;;;4595154;30;28495;-72
2023/08/19 08:44:04;;;;;;;;;1.00;1.00;;;;;;;;4594553;30;29262;-73
2023/08/19 08:46:29;;;;;;;;;1.67;1.67;;;;;;;;4594969;30;28474;-72
2023/08/19 08:48:55;;;;;;;;;2.00;2.00;;;;;;;;4595068;30;28525;-72
2023/08/19 08:51:22;;;;;;;;;1.00;1.00;;;;;;;;4595086;31;28408;-72
2023/08/19 08:53:48;;;;;;;;;1.00;1.00;;;;;;;;4595093;30;28527;-72
2023/08/19 08:56:14;;;;;;;;;1.00;1.00;;;;;;;;4593372;31;28504;-72
2023/08/19 08:58:39;;;;;;;;;2.00;1.00;;;;;;;;4594374;31;28442;-72
2023/08/19 09:01:05;;;;;;;;;1.00;1.00;;;;;;;;4594950;31;28364;-71
2023/08/19 09:03:32;;;;;;;;;3.00;2.00;;;;;;;;4594833;30;28434;-72
2023/08/19 09:06:00;;;;;;;;;1.00;1.00;;;;;;;;4594448;31;28498;-72
2023/08/19 09:08:37;;;;;;;;;1.00;1.00;;;;;;;;4594672;30;28451;-72
2023/08/19 09:11:04;;;;;;;;;1.00;1.00;;;;;;;;4594657;31;28549;-71
2023/08/19 09:13:30;;;;;;;;;2.00;2.00;;;;;;;;4594442;30;29493;-72
2023/08/19 09:15:55;;;;;;;;;1.00;1.00;;;;;;;;4594817;30;28440;-71
2023/08/19 09:18:21;;;;;;;;;2.67;1.00;;;;;;;;4593644;31;28405;-72
2023/08/19 09:20:46;;;;;;;;;3.00;3.00;;;;;;;;4595052;30;28519;-71
2023/08/19 09:23:12;;;;;;;;;2.33;1.00;;;;;;;;4594832;30;29140;-71
2023/08/19 09:25:37;;;;;;;;;1.00;1.00;;;;;;;;4594562;31;28345;-72
2023/08/19 09:28:03;;;;;;;;;3.33;2.00;;;;;;;;4594292;31;28312;-72
2023/08/19 09:30:35;;;;;;;;;2.00;2.00;;;;;;;;4593268;31;28432;-71
2023/08/19 09:33:00;;;;;;;;;1.67;1.67;;;;;;;;4594346;30;28471;-71
2023/08/19 09:35:33;;;;;;;;;2.00;2.00;;;;;;;;4594321;30;28395;-71
2023/08/19 09:37:59;;;;;;;;;1.00;1.00;;;;;;;;4594329;30;28498;-72
2023/08/19 09:40:24;;;;;;;;;2.00;2.00;;;;;;;;4594443;30;28415;-72
2023/08/19 09:42:49;;;;;;;;;3.00;2.00;;;;;;;;4592882;31;30949;-72
2023/08/19 09:45:18;;;;;;;;;3.00;0.67;;;;;;;;4594127;31;28495;-71
2023/08/19 09:47:48;;;;;;;;;2.67;2.00;;;;;;;;4594173;30;28400;-71
2023/08/19 09:50:14;;;;;;;;;1.67;1.00;;;;;;;;4594443;31;28410;-73
2023/08/19 09:52:40;;;;;;;;;3.33;2.00;;;;;;;;4594287;30;28450;-72
2023/08/19 09:55:05;;;;;;;;;3.00;1.67;;;;;;;;4593551;31;28431;-72
2023/08/19 09:57:34;;;;;;;;;4.00;2.33;;;;;;;;4594366;30;28410;-72
2023/08/19 10:00:00;;;;;;;;;4.33;3.00;;;;;;;;4594347;31;28632;-72
2023/08/19 10:02:25;;;;;;;;;0.00;0.00;;;;;;;;4594333;30;28523;-72
2023/08/19 10:04:50;;;;;;;;;2.00;2.00;;;;;;;;4593871;31;28424;-73
2023/08/19 10:07:16;;;;;;;;;2.33;2.00;;;;;;;;4593093;31;28615;-73
2023/08/19 10:09:42;;;;;;;;;4.00;2.00;;;;;;;;4592777;31;28538;-73
2023/08/19 10:12:08;;;;;;;;;2.00;2.00;;;;;;;;4593866;31;29289;-72
2023/08/19 10:14:33;;;;;;;;;4.00;3.00;;;;;;;;4593071;31;28544;-72
2023/08/19 10:17:04;;;;;;;;;2.00;2.00;;;;;;;;4594130;31;28408;-72
2023/08/19 10:19:31;;;;;;;;;2.33;2.33;;;;;;;;4593995;31;28443;-73
2023/08/19 10:21:58;;;;;;;;;2.33;2.33;;;;;;;;4593753;30;28519;-72
2023/08/19 10:24:24;;;;;;;;;3.33;2.33;;;;;;;;4593898;30;28473;-73
2023/08/19 10:26:49;;;;;;;;;2.67;2.00;;;;;;;;4592891;31;28460;-72
2023/08/19 10:29:16;;;;;;;;;3.00;2.00;;;;;;;;4594035;30;28457;-73
2023/08/19 10:31:42;;;;;;;;;3.33;3.00;;;;;;;;4593992;31;28486;-73
2023/08/19 10:34:11;;;;;;;;;3.00;3.00;;;;;;;;4593830;31;28418;-73
2023/08/19 10:36:37;;;;;;;;;3.00;3.00;;;;;;;;4593858;31;28430;-73
2023/08/19 10:39:03;;;;;;;;;2.00;2.00;;;;;;;;4593848;30;28453;-73
2023/08/19 10:41:29;;;;;;;;;2.00;2.00;;;;;;;;4593803;31;30289;-73
2023/08/19 10:44:01;;;;;;;;;2.00;2.00;;;;;;;;4594116;31;28433;-72
2023/08/19 10:46:27;;;;;;;;;3.00;3.00;;;;;;;;4594040;31;28396;-73
2023/08/19 10:48:53;;;;;;;;;3.00;2.00;;;;;;;;4592472;31;28416;-72
2023/08/19 10:51:18;;;;;;;;;2.33;2.33;;;;;;;;4593736;30;28528;-72
2023/08/19 10:53:50;;;;;;;;;2.00;2.00;;;;;;;;4593483;31;28495;-72
2023/08/19 10:56:17;;;;;;;;;2.00;2.00;;;;;;;;4593611;30;28474;-72
2023/08/19 10:58:43;;;;;;;;;2.67;1.33;;;;;;;;4593687;31;28441;-71
2023/08/19 11:01:09;;;;;;;;;1.33;1.33;;;;;;;;4593695;31;28659;-71
2023/08/19 11:03:34;;;;;;;;;2.33;1.33;;;;;;;;4593353;31;28462;-71
2023/08/19 11:06:04;;;;;;;;;3.00;2.00;;;;;;;;4593616;31;28445;-72
2023/08/19 11:08:29;;;;;;;;;1.00;1.00;;;;;;;;4596250;31;28534;-72
2023/08/19 11:10:55;;;;;;;;;2.00;1.00;;;;;;;;4596031;31;29168;-72
2023/08/19 11:13:22;;;;;;;;;1.67;1.00;;;;;;;;4595070;31;28348;-72
2023/08/19 11:15:49;;;;;;;;;2.00;1.00;;;;;;;;4596273;30;28492;-72
2023/08/19 11:18:20;;;;;;;;;2.00;2.00;;;;;;;;4596121;30;28579;-71
2023/08/19 11:20:45;;;;;;;;;1.00;1.00;;;;;;;;4594738;31;30012;-71
2023/08/19 11:23:11;;;;;;;;;0.00;0.00;;;;;;;;4596075;31;28471;-72
2023/08/19 11:25:36;;;;;;;;;2.00;2.00;;;;;;;;4595085;31;28396;-71
2023/08/19 11:28:02;;;;;;;;;1.33;1.00;;;;;;;;4594820;31;28435;-71
2023/08/19 11:30:28;;;;;;;;;2.67;1.67;;;;;;;;4596299;30;28515;-71
2023/08/19 11:32:54;;;;;;;;;0.67;0.67;;;;;;;;4594593;31;28548;-72
2023/08/19 11:35:19;;;;;;;;;1.33;1.00;;;;;;;;4596145;30;28506;-72
2023/08/19 11:37:45;;;;;;;;;0.33;0.33;;;;;;;;4595790;31;28492;-72
2023/08/19 11:40:13;;;;;;;;;1.00;1.00;;;;;;;;4596163;30;28479;-71
2023/08/19 11:42:38;;;;;;;;;3.00;1.00;;;;;;;;4596129;30;28364;-73
2023/08/19 11:45:05;;;;;;;;;0.00;0.00;;;;;;;;4596091;31;28403;-71
2023/08/19 11:47:33;;;;;;;;;1.00;1.00;;;;;;;;4596288;30;28629;-72
2023/08/19 11:49:59;;;;;;;;;1.00;1.00;;;;;;;;4596100;30;29097;-72
2023/08/19 11:52:25;;;;;;;;;1.00;1.00;;;;;;;;4596186;30;28470;-71
2023/08/19 11:54:57;;;;;;;;;0.67;0.67;;;;;;;;4596404;30;28528;-72
2023/08/19 11:57:22;;;;;;;;;1.33;0.33;;;;;;;;4596204;30;28562;-72
2023/08/19 11:59:47;;;;;;;;;0.00;0.00;;;;;;;;4595032;31;29842;-71
2023/08/19 12:02:13;;;;;;;;;2.00;0.00;;;;;;;;4596006;31;28398;-72
2023/08/19 12:04:38;;;;;;;;;0.00;0.00;;;;;;;;4596175;30;28472;-71
2023/08/19 12:07:10;;;;;;;;;1.00;1.00;;;;;;;;4595974;31;28443;-72
2023/08/19 12:09:37;;;;;;;;;1.00;1.00;;;;;;;;4594775;31;30543;-72
2023/08/19 12:12:10;;;;;;;;;0.00;0.00;;;;;;;;4595849;31;28351;-72
2023/08/19 12:14:37;;;;;;;;;0.00;0.00;;;;;;;;4595925;30;28507;-71
2023/08/19 12:17:04;;;;;;;;;0.00;0.00;;;;;;;;4595584;30;28500;-71
2023/08/19 12:19:30;;;;;;;;;0.33;0.33;;;;;;;;4595559;31;29624;-71
2023/08/19 12:21:55;;;;;;;;;1.00;1.00;;;;;;;;4595089;30;28455;-72
2023/08/19 12:24:21;;;;;;;;;2.00;0.00;;;;;;;;4595567;31;28458;-72
2023/08/19 12:26:46;;;;;;;;;0.00;0.00;;;;;;;;4595294;30;28373;-73
2023/08/19 12:29:12;;;;;;;;;0.00;0.00;;;;;;;;4594359;31;28350;-76
2023/08/19 12:31:37;;;;;;;;;0.00;0.00;;;;;;;;4595411;31;28286;-76
2023/08/19 12:34:02;;;;;;;;;0.00;0.00;;;;;;;;4595295;31;28399;-75
2023/08/19 12:36:27;;;;;;;;;1.67;1.67;;;;;;;;4595233;31;28337;-76
2023/08/19 12:38:53;;;;;;;;;0.00;0.00;;;;;;;;4595562;31;29090;-75
2023/08/19 12:41:19;;;;;;;;;1.00;1.00;;;;;;;;4595297;30;28330;-77
2023/08/19 12:43:44;;;;;;;;;0.00;0.00;;;;;;;;4595468;30;28369;-75
2023/08/19 12:46:09;;;;;;;;;1.00;1.00;;;;;;;;4595087;30;27837;-76
2023/08/19 12:48:35;;;;;;;;;0.00;0.00;;;;;;;;4595294;30;28490;-76
2023/08/19 12:51:00;;;;;;;;;0.67;0.00;;;;;;;;4594988;31;28469;-78
2023/08/19 12:53:25;;;;;;;;;0.00;0.00;;;;;;;;4595144;30;28358;-75
2023/08/19 12:55:50;;;;;;;;;0.00;0.00;;;;;;;;4595241;31;28633;-75
2023/08/19 12:58:16;;;;;;;;;0.67;0.67;;;;;;;;4594836;31;29258;-77
2023/08/19 13:00:41;;;;;;;;;1.00;0.00;;;;;;;;4595111;31;28486;-75
2023/08/19 13:03:06;;;;;;;;;0.33;0.33;;;;;;;;4593900;31;28490;-75
2023/08/19 13:05:31;;;;;;;;;0.33;0.33;;;;;;;;4594766;31;28411;-76
2023/08/19 13:07:58;;;;;;;;;0.75;0.75;;;;;;;;4594748;30;28454;-75
2023/08/19 13:10:23;;;;;;;;;0.00;0.00;;;;;;;;4594876;30;28495;-76
2023/08/19 13:12:49;;;;;;;;;2.00;1.00;;;;;;;;4593646;31;28484;-75
2023/08/19 13:15:17;;;;;;;;;2.00;0.50;;;;;;;;4594944;30;28436;-77
2023/08/19 13:17:42;;;;;;;;;1.33;0.67;;;;;;;;4594782;30;29732;-76
2023/08/19 13:20:07;;;;;;;;;0.00;0.00;;;;;;;;4594439;31;28431;-76
2023/08/19 13:22:33;;;;;;;;;1.00;1.00;;;;;;;;4579767;31;28484;-75
2023/08/19 13:24:58;;;;;;;;;0.00;0.00;;;;;;;;4594752;31;28448;-75
2023/08/19 13:27:23;;;;;;;;;0.00;0.00;;;;;;;;4593524;31;28657;-75
2023/08/19 13:29:49;;;;;;;;;1.25;0.00;;;;;;;;4594037;30;28379;-76
2023/08/19 13:32:14;;;;;;;;;0.00;0.00;;;;;;;;4594724;31;28452;-75
2023/08/19 13:34:39;;;;;;;;;0.00;0.00;;;;;;;;4594368;31;28602;-75
2023/08/19 13:37:05;;;;;;;;;0.00;0.00;;;;;;;;4594678;30;28737;-75
2023/08/19 13:39:31;;;;;;;;;0.00;0.00;;;;;;;;4594314;30;28459;-75
2023/08/19 13:41:57;;;;;;;;;0.00;0.00;;;;;;;;4594601;30;28485;-77
2023/08/19 13:44:25;;;;;;;;;0.00;0.00;;;;;;;;4594524;30;28423;-76
2023/08/19 13:46:51;;;;;;;;;0.00;0.00;;;;;;;;4594376;31;30226;-76
2023/08/19 13:49:16;;;;;;;;;0.00;0.00;;;;;;;;4594136;30;28412;-75
2023/08/19 13:51:42;;;;;;;;;0.00;0.00;;;;;;;;4594662;30;28352;-75
2023/08/19 13:54:07;;;;;;;;;0.00;0.00;;;;;;;;4593434;31;28372;-75
2023/08/19 13:56:32;;;;;;;;;1.00;0.00;;;;;;;;4594657;31;29197;-76
2023/08/19 13:58:57;;;;;;;;;1.00;1.00;;;;;;;;4594392;31;28449;-75
2023/08/19 14:01:23;;;;;;;;;0.00;0.00;;;;;;;;4592865;31;28281;-75
2023/08/19 14:03:48;;;;;;;;;0.00;0.00;;;;;;;;4594302;31;28368;-76
2023/08/19 14:06:13;;;;;;;;;0.00;0.00;;;;;;;;4594004;31;29253;-75
2023/08/19 14:08:39;;;;;;;;;0.00;0.00;;;;;;;;4594240;31;28349;-76
2023/08/19 14:11:07;;;;;;;;;0.00;0.00;;;;;;;;4594459;31;28427;-75
2023/08/19 14:13:33;;;;;;;;;0.00;0.00;;;;;;;;4594143;31;28639;-76
2023/08/19 14:15:58;;;;;;;;;0.67;0.00;;;;;;;;4593738;31;29402;-76
2023/08/19 14:18:23;;;;;;;;;0.00;0.00;;;;;;;;4593070;31;28431;-75
2023/08/19 14:20:48;;;;;;;;;0.00;0.00;;;;;;;;4592982;31;28501;-76
2023/08/19 14:23:14;;;;;;;;;0.00;0.00;;;;;;;;4594284;31;28413;-75
2023/08/19 14:25:39;;;;;;;;;0.00;0.00;;;;;;;;4593971;31;28553;-75
2023/08/19 14:28:04;;;;;;;;;0.00;0.00;;;;;;;;4593794;31;28889;-75
2023/08/19 14:30:30;;;;;;;;;0.00;0.00;;;;;;;;4594045;30;28463;-75
2023/08/19 14:32:55;;;;;;;;;2.00;0.25;;;;;;;;4592588;31;28639;-74